Ayawasi Airport


Codes: ID-AYW/AYW
Name: Ayawasi Airport
City: Ayawasi-Papua Island
Country: Indonesia
Elevation: 1560 ft.
Wikipedia:

Photos at Ayawasi Airport


   Photos courtesy of SpottingLog. You can add your own sightings and photos by signing up for a free trial today.



No photos found.

Weather at Ayawasi Airport


Time (UTC)DescriptionTempratureWindCloud coverageVisibilityPressureHumidity
23-May-2024 21:00Moderate Rain22°C2 mph, E94%7046m1008hPa99%
24-May-2024 00:00Overcast Clouds25°C0 mph, SE92%10000m1009hPa89%
24-May-2024 03:00Light Rain28°C2 mph, W66%10000m1008hPa80%
24-May-2024 06:00Moderate Rain26°C2 mph, W71%6273m1006hPa93%
24-May-2024 09:00Moderate Rain23°C2 mph, NW100%10000m1008hPa99%
24-May-2024 12:00Light Rain22°C2 mph, N100%10000m1010hPa99%
24-May-2024 15:00Overcast Clouds22°C2 mph, N97%10000m1010hPa99%
24-May-2024 18:00Overcast Clouds21°C2 mph, NE98%10000m1009hPa99%
24-May-2024 21:00Overcast Clouds21°C2 mph, E100%10000m1009hPa99%
25-May-2024 00:00Overcast Clouds25°C2 mph, SE93%10000m1011hPa86%
25-May-2024 03:00Light Rain30°C4 mph, S62%10000m1008hPa60%
25-May-2024 06:00Moderate Rain27°C2 mph, SW64%10000m1007hPa90%
25-May-2024 09:00Moderate Rain23°C0 mph, W100%3764m1009hPa98%
25-May-2024 12:00Moderate Rain22°C2 mph, NW100%8169m1011hPa99%
25-May-2024 15:00Moderate Rain22°C2 mph, NW100%10000m1011hPa99%
25-May-2024 18:00Light Rain22°C2 mph, N100%9523m1010hPa100%
25-May-2024 21:00Light Rain21°C2 mph, N100%10000m1011hPa99%
26-May-2024 00:00Light Rain25°C2 mph, NW99%10000m1012hPa87%
26-May-2024 03:00Light Rain31°C2 mph, NW95%10000m1009hPa58%
26-May-2024 06:00Moderate Rain26°C2 mph, W85%7101m1007hPa91%
26-May-2024 09:00Moderate Rain23°C2 mph, W98%8153m1008hPa97%
26-May-2024 12:00Moderate Rain22°C2 mph, SE99%10000m1011hPa99%
26-May-2024 15:00Light Rain22°C0 mph, NE100%10000m1010hPa99%
26-May-2024 18:00Overcast Clouds21°C2 mph, N100%10000m1009hPa99%
26-May-2024 21:00Overcast Clouds22°C2 mph, N100%10000m1010hPa99%
27-May-2024 00:00Light Rain24°C0 mph, NE92%10000m1011hPa93%
27-May-2024 03:00Light Rain27°C2 mph, SW41%10000m1009hPa79%
27-May-2024 06:00Moderate Rain25°C2 mph, SW57%10000m1007hPa94%
27-May-2024 09:00Moderate Rain23°C2 mph, SW100%6699m1009hPa97%
27-May-2024 12:00Moderate Rain22°C2 mph, SE99%3845m1010hPa99%
27-May-2024 15:00Light Rain22°C0 mph, E99%10000m1010hPa99%
27-May-2024 18:00Overcast Clouds21°C2 mph, NE89%10000m1008hPa99%
27-May-2024 21:00Scattered Clouds20°C2 mph, NE29%10000m1010hPa99%
28-May-2024 00:00Scattered Clouds25°C0 mph, SE42%10000m1011hPa81%
28-May-2024 03:00Light Rain29°C4 mph, SW66%10000m1008hPa68%
28-May-2024 06:00Moderate Rain26°C2 mph, SW68%8219m1007hPa89%
28-May-2024 09:00Moderate Rain23°C0 mph, NW100%7654m1008hPa96%
28-May-2024 12:00Light Rain22°C0 mph, NE92%10000m1011hPa98%
28-May-2024 15:00Broken Clouds21°C2 mph, N79%10000m1010hPa99%
28-May-2024 18:00Broken Clouds21°C2 mph, N83%10000m1009hPa99%